sensor_id;sensor_type;location;lat;lon;timestamp;pressure;altitude;pressure_sealevel;temperature;humidity
78741;BME280;68062;48.726;9.370;2023-08-17T00:02:15;98884.69;;;18.81;100.00
78741;BME280;68062;48.726;9.370;2023-08-17T00:04:41;98881.03;;;18.60;100.00
78741;BME280;68062;48.726;9.370;2023-08-17T00:07:08;98882.38;;;18.47;100.00
78741;BME280;68062;48.726;9.370;2023-08-17T00:09:34;98881.50;;;18.46;100.00
78741;BME280;68062;48.726;9.370;2023-08-17T00:12:01;98881.56;;;18.45;100.00
78741;BME280;68062;48.726;9.370;2023-08-17T00:14:28;98873.59;;;18.76;100.00
78741;BME280;68062;48.726;9.370;2023-08-17T00:16:56;98882.88;;;18.83;100.00
78741;BME280;68062;48.726;9.370;2023-08-17T00:19:24;98882.59;;;18.66;100.00
78741;BME280;68062;48.726;9.370;2023-08-17T00:21:51;98885.56;;;18.55;100.00
78741;BME280;68062;48.726;9.370;2023-08-17T00:24:18;98878.50;;;18.59;100.00
78741;BME280;68062;48.726;9.370;2023-08-17T00:26:44;98873.06;;;18.40;100.00
78741;BME280;68062;48.726;9.370;2023-08-17T00:29:11;98874.75;;;18.41;100.00
78741;BME280;68062;48.726;9.370;2023-08-17T00:31:39;98862.56;;;18.68;100.00
78741;BME280;68062;48.726;9.370;2023-08-17T00:34:06;98866.81;;;18.71;100.00
78741;BME280;68062;48.726;9.370;2023-08-17T00:36:35;98864.69;;;18.57;100.00
78741;BME280;68062;48.726;9.370;2023-08-17T00:39:01;98867.59;;;18.47;100.00
78741;BME280;68062;48.726;9.370;2023-08-17T00:41:28;98862.88;;;18.32;100.00
78741;BME280;68062;48.726;9.370;2023-08-17T00:43:55;98860.31;;;18.57;100.00
78741;BME280;68062;48.726;9.370;2023-08-17T00:46:24;98872.50;;;18.57;100.00
78741;BME280;68062;48.726;9.370;2023-08-17T00:48:52;98874.09;;;18.34;100.00
78741;BME280;68062;48.726;9.370;2023-08-17T00:51:21;98863.53;;;18.10;100.00
78741;BME280;68062;48.726;9.370;2023-08-17T00:53:50;98861.66;;;18.15;100.00
78741;BME280;68062;48.726;9.370;2023-08-17T00:56:17;98865.50;;;18.03;100.00
78741;BME280;68062;48.726;9.370;2023-08-17T00:58:44;98866.66;;;17.93;100.00
78741;BME280;68062;48.726;9.370;2023-08-17T01:01:11;98863.41;;;18.15;100.00
78741;BME280;68062;48.726;9.370;2023-08-17T01:03:39;98857.06;;;18.23;100.00
78741;BME280;68062;48.726;9.370;2023-08-17T01:06:07;98862.25;;;18.23;100.00
78741;BME280;68062;48.726;9.370;2023-08-17T01:08:34;98858.50;;;18.05;100.00
78741;BME280;68062;48.726;9.370;2023-08-17T01:11:10;98853.09;;;18.12;100.00
78741;BME280;68062;48.726;9.370;2023-08-17T01:13:45;98853.56;;;18.24;100.00
78741;BME280;68062;48.726;9.370;2023-08-17T01:16:17;98848.00;;;18.08;100.00
78741;BME280;68062;48.726;9.370;2023-08-17T01:18:46;98841.19;;;18.04;100.00
78741;BME280;68062;48.726;9.370;2023-08-17T01:21:16;98851.88;;;17.93;100.00
78741;BME280;68062;48.726;9.370;2023-08-17T01:23:45;98843.63;;;17.79;100.00
78741;BME280;68062;48.726;9.370;2023-08-17T01:26:12;98846.94;;;17.84;100.00
78741;BME280;68062;48.726;9.370;2023-08-17T01:28:41;98848.81;;;17.80;100.00
78741;BME280;68062;48.726;9.370;2023-08-17T01:31:11;98840.47;;;17.98;100.00
78741;BME280;68062;48.726;9.370;2023-08-17T01:33:52;98837.81;;;18.01;100.00
78741;BME280;68062;48.726;9.370;2023-08-17T01:36:22;98839.41;;;17.76;100.00
78741;BME280;68062;48.726;9.370;2023-08-17T01:38:53;98834.75;;;17.86;100.00
78741;BME280;68062;48.726;9.370;2023-08-17T01:41:23;98825.03;;;17.93;100.00
78741;BME280;68062;48.726;9.370;2023-08-17T01:43:50;98825.84;;;17.95;100.00
78741;BME280;68062;48.726;9.370;2023-08-17T01:46:17;98822.91;;;18.06;100.00
78741;BME280;68062;48.726;9.370;2023-08-17T01:48:45;98826.22;;;18.11;100.00
78741;BME280;68062;48.726;9.370;2023-08-17T01:51:17;98826.50;;;18.02;100.00
78741;BME280;68062;48.726;9.370;2023-08-17T01:53:44;98825.06;;;17.91;100.00
78741;BME280;68062;48.726;9.370;2023-08-17T01:56:12;98832.06;;;17.89;100.00
78741;BME280;68062;48.726;9.370;2023-08-17T01:58:38;98821.28;;;18.03;100.00
78741;BME280;68062;48.726;9.370;2023-08-17T02:01:05;98808.75;;;17.86;100.00
78741;BME280;68062;48.726;9.370;2023-08-17T02:03:32;98830.34;;;17.88;100.00
78741;BME280;68062;48.726;9.370;2023-08-17T02:05:59;98831.94;;;17.94;100.00
78741;BME280;68062;48.726;9.370;2023-08-17T02:08:26;98842.63;;;17.85;100.00
78741;BME280;68062;48.726;9.370;2023-08-17T02:10:53;98837.78;;;17.72;100.00
78741;BME280;68062;48.726;9.370;2023-08-17T02:13:22;98836.22;;;17.67;100.00
78741;BME280;68062;48.726;9.370;2023-08-17T02:15:49;98836.09;;;17.71;100.00
78741;BME280;68062;48.726;9.370;2023-08-17T02:18:15;98838.06;;;17.63;100.00
78741;BME280;68062;48.726;9.370;2023-08-17T02:20:42;98835.91;;;17.77;100.00
78741;BME280;68062;48.726;9.370;2023-08-17T02:23:10;98819.63;;;17.99;100.00
78741;BME280;68062;48.726;9.370;2023-08-17T02:25:38;98822.53;;;18.18;100.00
78741;BME280;68062;48.726;9.370;2023-08-17T02:28:05;98821.81;;;18.13;100.00
78741;BME280;68062;48.726;9.370;2023-08-17T02:30:33;98823.00;;;18.03;100.00
78741;BME280;68062;48.726;9.370;2023-08-17T02:33:00;98822.91;;;18.06;100.00
78741;BME280;68062;48.726;9.370;2023-08-17T02:35:27;98822.53;;;18.18;100.00
78741;BME280;68062;48.726;9.370;2023-08-17T02:37:53;98818.97;;;18.21;100.00
78741;BME280;68062;48.726;9.370;2023-08-17T02:40:21;98820.31;;;18.33;100.00
78741;BME280;68062;48.726;9.370;2023-08-17T02:42:47;98816.09;;;18.30;100.00
78741;BME280;68062;48.726;9.370;2023-08-17T02:45:14;98820.63;;;18.23;100.00
78741;BME280;68062;48.726;9.370;2023-08-17T02:47:43;98814.31;;;18.31;100.00
78741;BME280;68062;48.726;9.370;2023-08-17T02:50:10;98821.91;;;18.64;100.00
78741;BME280;68062;48.726;9.370;2023-08-17T02:52:37;98810.84;;;18.82;100.00
78741;BME280;68062;48.726;9.370;2023-08-17T02:55:04;98816.19;;;18.78;100.00
78741;BME280;68062;48.726;9.370;2023-08-17T02:57:31;98812.75;;;18.77;100.00
78741;BME280;68062;48.726;9.370;2023-08-17T02:59:58;98804.59;;;18.61;100.00
78741;BME280;68062;48.726;9.370;2023-08-17T03:02:24;98793.44;;;18.83;100.00
78741;BME280;68062;48.726;9.370;2023-08-17T03:04:52;98797.38;;;18.95;100.00
78741;BME280;68062;48.726;9.370;2023-08-17T03:07:19;98792.09;;;18.98;100.00
78741;BME280;68062;48.726;9.370;2023-08-17T03:09:46;98799.00;;;18.99;100.00
78741;BME280;68062;48.726;9.370;2023-08-17T03:12:12;98798.22;;;18.95;100.00
78741;BME280;68062;48.726;9.370;2023-08-17T03:14:39;98793.72;;;19.01;100.00
78741;BME280;68062;48.726;9.370;2023-08-17T03:17:06;98791.13;;;19.01;100.00
78741;BME280;68062;48.726;9.370;2023-08-17T03:19:33;98780.47;;;19.07;100.00
78741;BME280;68062;48.726;9.370;2023-08-17T03:22:01;98782.19;;;19.08;100.00
78741;BME280;68062;48.726;9.370;2023-08-17T03:24:29;98776.84;;;19.11;100.00
78741;BME280;68062;48.726;9.370;2023-08-17T03:26:56;98776.97;;;19.08;100.00
78741;BME280;68062;48.726;9.370;2023-08-17T03:29:25;98764.16;;;19.02;100.00
78741;BME280;68062;48.726;9.370;2023-08-17T03:31:52;98787.56;;;19.03;100.00
78741;BME280;68062;48.726;9.370;2023-08-17T03:34:19;98774.88;;;19.18;100.00
78741;BME280;68062;48.726;9.370;2023-08-17T03:36:46;98774.13;;;19.14;100.00
78741;BME280;68062;48.726;9.370;2023-08-17T03:39:14;98770.59;;;19.17;100.00
78741;BME280;68062;48.726;9.370;2023-08-17T03:41:41;98779.19;;;19.19;100.00
78741;BME280;68062;48.726;9.370;2023-08-17T03:44:08;98772.06;;;19.24;100.00
78741;BME280;68062;48.726;9.370;2023-08-17T03:46:35;98782.47;;;19.24;100.00
78741;BME280;68062;48.726;9.370;2023-08-17T03:49:01;98781.84;;;19.17;100.00
78741;BME280;68062;48.726;9.370;2023-08-17T03:51:29;98793.59;;;19.05;100.00
78741;BME280;68062;48.726;9.370;2023-08-17T03:53:55;98789.56;;;18.95;100.00
78741;BME280;68062;48.726;9.370;2023-08-17T03:56:24;98759.41;;;18.64;100.00
78741;BME280;68062;48.726;9.370;2023-08-17T03:58:50;98793.63;;;18.78;100.00
78741;BME280;68062;48.726;9.370;2023-08-17T04:01:17;98790.41;;;18.95;100.00
78741;BME280;68062;48.726;9.370;2023-08-17T04:03:44;98796.41;;;18.99;100.00
78741;BME280;68062;48.726;9.370;2023-08-17T04:06:10;98799.69;;;19.04;100.00
78741;BME280;68062;48.726;9.370;2023-08-17T04:08:37;98795.09;;;19.11;100.00
78741;BME280;68062;48.726;9.370;2023-08-17T04:11:04;98792.94;;;19.22;100.00
78741;BME280;68062;48.726;9.370;2023-08-17T04:13:32;98796.19;;;19.29;100.00
78741;BME280;68062;48.726;9.370;2023-08-17T04:15:59;98801.56;;;19.24;100.00
78741;BME280;68062;48.726;9.370;2023-08-17T04:18:26;98806.63;;;19.29;100.00
78741;BME280;68062;48.726;9.370;2023-08-17T04:20:53;98803.16;;;19.29;100.00
78741;BME280;68062;48.726;9.370;2023-08-17T04:23:19;98811.63;;;19.10;100.00
78741;BME280;68062;48.726;9.370;2023-08-17T04:25:46;98812.84;;;19.25;100.00
78741;BME280;68062;48.726;9.370;2023-08-17T04:28:13;98810.19;;;19.26;100.00
78741;BME280;68062;48.726;9.370;2023-08-17T04:30:41;98817.84;;;19.31;100.00
78741;BME280;68062;48.726;9.370;2023-08-17T04:33:08;98822.16;;;19.32;100.00
78741;BME280;68062;48.726;9.370;2023-08-17T04:35:35;98817.78;;;19.33;100.00
78741;BME280;68062;48.726;9.370;2023-08-17T04:38:02;98804.97;;;19.26;100.00
78741;BME280;68062;48.726;9.370;2023-08-17T04:40:29;98814.00;;;19.41;100.00
78741;BME280;68062;48.726;9.370;2023-08-17T04:42:58;98819.19;;;19.41;100.00
78741;BME280;68062;48.726;9.370;2023-08-17T04:45:25;98819.13;;;19.43;100.00
78741;BME280;68062;48.726;9.370;2023-08-17T04:47:54;98821.38;;;19.30;100.00
78741;BME280;68062;48.726;9.370;2023-08-17T04:50:20;98826.06;;;19.44;100.00
78741;BME280;68062;48.726;9.370;2023-08-17T04:52:47;98823.44;;;19.44;100.00
78741;BME280;68062;48.726;9.370;2023-08-17T04:55:14;98823.88;;;19.55;100.00
78741;BME280;68062;48.726;9.370;2023-08-17T04:57:42;98828.31;;;19.53;100.00
78741;BME280;68062;48.726;9.370;2023-08-17T05:00:12;98835.78;;;19.63;100.00
78741;BME280;68062;48.726;9.370;2023-08-17T05:02:41;98831.31;;;19.66;100.00
78741;BME280;68062;48.726;9.370;2023-08-17T05:05:10;98830.41;;;19.67;100.00
78741;BME280;68062;48.726;9.370;2023-08-17T05:07:37;98838.16;;;19.69;100.00
78741;BME280;68062;48.726;9.370;2023-08-17T05:10:04;98824.88;;;19.53;100.00
78741;BME280;68062;48.726;9.370;2023-08-17T05:12:34;98834.88;;;19.64;100.00
78741;BME280;68062;48.726;9.370;2023-08-17T05:15:01;98836.34;;;19.71;100.00
78741;BME280;68062;48.726;9.370;2023-08-17T05:17:27;98837.09;;;19.75;100.00
78741;BME280;68062;48.726;9.370;2023-08-17T05:19:55;98833.16;;;19.87;100.00
78741;BME280;68062;48.726;9.370;2023-08-17T05:22:23;98829.81;;;19.83;100.00
78741;BME280;68062;48.726;9.370;2023-08-17T05:24:50;98835.34;;;19.97;100.00
78741;BME280;68062;48.726;9.370;2023-08-17T05:27:18;98838.47;;;20.07;100.00
78741;BME280;68062;48.726;9.370;2023-08-17T05:29:45;98839.06;;;20.14;100.00
78741;BME280;68062;48.726;9.370;2023-08-17T05:32:12;98807.75;;;19.92;100.00
78741;BME280;68062;48.726;9.370;2023-08-17T05:34:41;98830.25;;;20.17;100.00
78741;BME280;68062;48.726;9.370;2023-08-17T05:37:08;98834.47;;;20.21;100.00
78741;BME280;68062;48.726;9.370;2023-08-17T05:39:36;98833.97;;;20.33;100.00
78741;BME280;68062;48.726;9.370;2023-08-17T05:42:03;98837.78;;;20.24;100.00
78741;BME280;68062;48.726;9.370;2023-08-17T05:44:30;98832.91;;;20.37;100.00
78741;BME280;68062;48.726;9.370;2023-08-17T05:46:57;98828.28;;;20.44;100.00
78741;BME280;68062;48.726;9.370;2023-08-17T05:49:24;98833.75;;;20.38;100.00
78741;BME280;68062;48.726;9.370;2023-08-17T05:51:51;98842.75;;;20.31;100.00
78741;BME280;68062;48.726;9.370;2023-08-17T05:54:18;98845.03;;;20.18;100.00
78741;BME280;68062;48.726;9.370;2023-08-17T05:56:46;98847.19;;;20.28;100.00
78741;BME280;68062;48.726;9.370;2023-08-17T05:59:13;98855.25;;;20.22;100.00
78741;BME280;68062;48.726;9.370;2023-08-17T06:01:40;98850.97;;;19.99;100.00
78741;BME280;68062;48.726;9.370;2023-08-17T06:04:07;98817.41;;;19.90;100.00
78741;BME280;68062;48.726;9.370;2023-08-17T06:06:34;98848.41;;;20.20;100.00
78741;BME280;68062;48.726;9.370;2023-08-17T06:09:00;98849.63;;;20.11;100.00
78741;BME280;68062;48.726;9.370;2023-08-17T06:11:27;98856.84;;;20.04;100.00
78741;BME280;68062;48.726;9.370;2023-08-17T06:13:55;98851.75;;;20.01;100.00
78741;BME280;68062;48.726;9.370;2023-08-17T06:16:22;98851.25;;;19.91;100.00
78741;BME280;68062;48.726;9.370;2023-08-17T06:18:49;98850.84;;;19.78;100.00
78741;BME280;68062;48.726;9.370;2023-08-17T06:21:16;98858.06;;;19.95;100.00
78741;BME280;68062;48.726;9.370;2023-08-17T06:23:42;98862.25;;;19.99;100.00
78741;BME280;68062;48.726;9.370;2023-08-17T06:26:09;98859.34;;;20.07;100.00
78741;BME280;68062;48.726;9.370;2023-08-17T06:28:36;98861.88;;;20.09;100.00
78741;BME280;68062;48.726;9.370;2023-08-17T06:31:04;98865.41;;;20.08;100.00
78741;BME280;68062;48.726;9.370;2023-08-17T06:33:30;98859.91;;;20.16;100.00
78741;BME280;68062;48.726;9.370;2023-08-17T06:35:57;98865.16;;;19.92;100.00
78741;BME280;68062;48.726;9.370;2023-08-17T06:38:24;98861.28;;;20.02;100.00
78741;BME280;68062;48.726;9.370;2023-08-17T06:40:51;98855.47;;;20.18;100.00
78741;BME280;68062;48.726;9.370;2023-08-17T06:43:18;98856.66;;;20.31;100.00
78741;BME280;68062;48.726;9.370;2023-08-17T06:45:45;98857.13;;;20.41;100.00
78741;BME280;68062;48.726;9.370;2023-08-17T06:48:13;98852.78;;;20.41;100.00
78741;BME280;68062;48.726;9.370;2023-08-17T06:50:39;98855.47;;;20.61;100.00
78741;BME280;68062;48.726;9.370;2023-08-17T06:53:09;98848.31;;;20.86;100.00
78741;BME280;68062;48.726;9.370;2023-08-17T06:55:36;98861.00;;;20.96;100.00
78741;BME280;68062;48.726;9.370;2023-08-17T06:58:03;98858.00;;;20.84;100.00
78741;BME280;68062;48.726;9.370;2023-08-17T07:00:29;98860.94;;;20.97;100.00
78741;BME280;68062;48.726;9.370;2023-08-17T07:02:57;98859.16;;;20.98;100.00
78741;BME280;68062;48.726;9.370;2023-08-17T07:05:25;98821.09;;;20.49;100.00
78741;BME280;68062;48.726;9.370;2023-08-17T07:07:52;98871.88;;;20.64;100.00
78741;BME280;68062;48.726;9.370;2023-08-17T07:10:19;98860.69;;;20.61;100.00
78741;BME280;68062;48.726;9.370;2023-08-17T07:12:46;98868.53;;;20.61;100.00
78741;BME280;68062;48.726;9.370;2023-08-17T07:15:13;98866.91;;;20.58;100.00
78741;BME280;68062;48.726;9.370;2023-08-17T07:17:40;98862.75;;;20.52;100.00
78741;BME280;68062;48.726;9.370;2023-08-17T07:20:08;98867.03;;;20.55;100.00
78741;BME280;68062;48.726;9.370;2023-08-17T07:22:38;98868.13;;;20.70;100.00
78741;BME280;68062;48.726;9.370;2023-08-17T07:25:05;98866.44;;;20.91;100.00
78741;BME280;68062;48.726;9.370;2023-08-17T07:27:34;98868.78;;;20.97;100.00
78741;BME280;68062;48.726;9.370;2023-08-17T07:30:00;98874.03;;;21.16;100.00
78741;BME280;68062;48.726;9.370;2023-08-17T07:32:27;98858.38;;;21.36;100.00
78741;BME280;68062;48.726;9.370;2023-08-17T07:34:53;98870.13;;;21.46;100.00
78741;BME280;68062;48.726;9.370;2023-08-17T07:37:20;98868.16;;;21.51;100.00
78741;BME280;68062;48.726;9.370;2023-08-17T07:39:48;98844.28;;;21.59;100.00
78741;BME280;68062;48.726;9.370;2023-08-17T07:42:15;98871.88;;;21.66;100.00
78741;BME280;68062;48.726;9.370;2023-08-17T07:44:42;98863.84;;;21.50;100.00
78741;BME280;68062;48.726;9.370;2023-08-17T07:47:08;98866.88;;;21.41;100.00
78741;BME280;68062;48.726;9.370;2023-08-17T07:49:35;98854.38;;;21.48;100.00
78741;BME280;68062;48.726;9.370;2023-08-17T07:52:02;98852.59;;;21.48;100.00
78741;BME280;68062;48.726;9.370;2023-08-17T07:54:29;98851.84;;;22.03;98.98
78741;BME280;68062;48.726;9.370;2023-08-17T07:56:57;98847.78;;;22.15;98.46
78741;BME280;68062;48.726;9.370;2023-08-17T07:59:24;98850.84;;;22.43;96.90
78741;BME280;68062;48.726;9.370;2023-08-17T08:01:51;98850.41;;;22.52;94.49
78741;BME280;68062;48.726;9.370;2023-08-17T08:04:18;98842.81;;;22.63;93.27
78741;BME280;68062;48.726;9.370;2023-08-17T08:06:45;98847.84;;;22.68;92.93
78741;BME280;68062;48.726;9.370;2023-08-17T08:09:12;98856.31;;;22.91;92.20
78741;BME280;68062;48.726;9.370;2023-08-17T08:11:38;98844.22;;;23.56;87.53
78741;BME280;68062;48.726;9.370;2023-08-17T08:14:06;98845.22;;;22.68;93.36
78741;BME280;68062;48.726;9.370;2023-08-17T08:16:33;98838.59;;;22.61;92.00
78741;BME280;68062;48.726;9.370;2023-08-17T08:19:00;98825.41;;;22.80;89.65
78741;BME280;68062;48.726;9.370;2023-08-17T08:21:26;98845.13;;;22.87;88.99
78741;BME280;68062;48.726;9.370;2023-08-17T08:23:54;98851.53;;;22.99;91.04
78741;BME280;68062;48.726;9.370;2023-08-17T08:26:20;98851.72;;;23.30;87.71
78741;BME280;68062;48.726;9.370;2023-08-17T08:28:47;98852.03;;;23.57;85.07
78741;BME280;68062;48.726;9.370;2023-08-17T08:31:15;98847.63;;;23.90;83.67
78741;BME280;68062;48.726;9.370;2023-08-17T08:33:43;98841.56;;;24.36;80.90
78741;BME280;68062;48.726;9.370;2023-08-17T08:36:09;98831.84;;;25.26;77.33
78741;BME280;68062;48.726;9.370;2023-08-17T08:38:36;98825.25;;;26.05;72.50
78741;BME280;68062;48.726;9.370;2023-08-17T08:41:03;98830.38;;;26.61;71.02
78741;BME280;68062;48.726;9.370;2023-08-17T08:43:29;98835.25;;;27.32;66.76
78741;BME280;68062;48.726;9.370;2023-08-17T08:45:58;98828.50;;;27.15;67.76
78741;BME280;68062;48.726;9.370;2023-08-17T08:48:29;98815.59;;;27.36;67.27
78741;BME280;68062;48.726;9.370;2023-08-17T08:50:55;98827.09;;;28.10;64.96
78741;BME280;68062;48.726;9.370;2023-08-17T08:53:28;98833.31;;;27.84;64.09
78741;BME280;68062;48.726;9.370;2023-08-17T08:55:59;98831.59;;;28.45;62.41
78741;BME280;68062;48.726;9.370;2023-08-17T08:58:29;98841.81;;;29.76;58.36
78741;BME280;68062;48.726;9.370;2023-08-17T09:00:57;98839.31;;;29.18;60.42
78741;BME280;68062;48.726;9.370;2023-08-17T09:03:25;98834.75;;;28.50;62.95
78741;BME280;68062;48.726;9.370;2023-08-17T09:05:53;98830.84;;;28.78;64.88
78741;BME280;68062;48.726;9.370;2023-08-17T09:08:25;98824.06;;;30.00;57.45
78741;BME280;68062;48.726;9.370;2023-08-17T09:10:53;98825.25;;;30.07;58.15
78741;BME280;68062;48.726;9.370;2023-08-17T09:13:20;98822.53;;;29.74;59.46
78741;BME280;68062;48.726;9.370;2023-08-17T09:15:46;98818.38;;;29.37;58.07
78741;BME280;68062;48.726;9.370;2023-08-17T09:18:13;98812.50;;;29.11;60.15
78741;BME280;68062;48.726;9.370;2023-08-17T09:20:41;98816.19;;;29.31;59.39
78741;BME280;68062;48.726;9.370;2023-08-17T09:23:12;98820.41;;;29.45;59.45
78741;BME280;68062;48.726;9.370;2023-08-17T09:25:40;98812.38;;;30.02;56.67
78741;BME280;68062;48.726;9.370;2023-08-17T09:28:08;98806.91;;;30.36;55.32
78741;BME280;68062;48.726;9.370;2023-08-17T09:30:49;98795.84;;;30.10;56.59
78741;BME280;68062;48.726;9.370;2023-08-17T09:33:16;98797.78;;;30.29;56.38
78741;BME280;68062;48.726;9.370;2023-08-17T09:35:43;98801.75;;;31.39;52.79
78741;BME280;68062;48.726;9.370;2023-08-17T09:38:11;98794.84;;;29.67;58.79
78741;BME280;68062;48.726;9.370;2023-08-17T09:40:39;98803.09;;;29.41;60.42
78741;BME280;68062;48.726;9.370;2023-08-17T09:43:06;98793.50;;;31.11;55.23
78741;BME280;68062;48.726;9.370;2023-08-17T09:45:33;98793.13;;;31.47;53.48
78741;BME280;68062;48.726;9.370;2023-08-17T09:47:59;98782.66;;;33.01;49.04
78741;BME280;68062;48.726;9.370;2023-08-17T09:50:27;98789.53;;;32.56;50.65
78741;BME280;68062;48.726;9.370;2023-08-17T09:52:53;98789.25;;;31.71;52.56
78741;BME280;68062;48.726;9.370;2023-08-17T09:55:23;98780.69;;;31.67;53.11
78741;BME280;68062;48.726;9.370;2023-08-17T09:57:50;98784.19;;;31.68;50.99
78741;BME280;68062;48.726;9.370;2023-08-17T10:00:17;98783.84;;;31.32;53.54
78741;BME280;68062;48.726;9.370;2023-08-17T10:02:45;98779.66;;;31.39;52.62
78741;BME280;68062;48.726;9.370;2023-08-17T10:05:12;98769.50;;;31.64;53.77
78741;BME280;68062;48.726;9.370;2023-08-17T10:07:43;98772.84;;;31.15;53.34
78741;BME280;68062;48.726;9.370;2023-08-17T10:10:10;98770.84;;;31.07;53.17
78741;BME280;68062;48.726;9.370;2023-08-17T10:12:52;98770.78;;;30.88;53.98
78741;BME280;68062;48.726;9.370;2023-08-17T10:15:21;98764.13;;;30.93;54.08
78741;BME280;68062;48.726;9.370;2023-08-17T10:17:57;98763.34;;;31.12;54.14
78741;BME280;68062;48.726;9.370;2023-08-17T10:20:26;98758.09;;;30.91;54.07
78741;BME280;68062;48.726;9.370;2023-08-17T10:23:00;98753.22;;;30.44;55.48
78741;BME280;68062;48.726;9.370;2023-08-17T10:25:29;98752.53;;;30.63;56.02
78741;BME280;68062;48.726;9.370;2023-08-17T10:27:57;98750.03;;;30.72;55.85
78741;BME280;68062;48.726;9.370;2023-08-17T10:30:25;98753.78;;;31.00;53.96
78741;BME280;68062;48.726;9.370;2023-08-17T10:32:52;98754.03;;;31.18;54.32
78741;BME280;68062;48.726;9.370;2023-08-17T10:35:19;98720.06;;;31.22;51.95
78741;BME280;68062;48.726;9.370;2023-08-17T10:37:46;98749.94;;;31.65;51.30
78741;BME280;68062;48.726;9.370;2023-08-17T10:40:13;98738.63;;;32.69;49.41
78741;BME280;68062;48.726;9.370;2023-08-17T10:42:41;98732.94;;;33.02;48.83
78741;BME280;68062;48.726;9.370;2023-08-17T10:45:33;98734.94;;;32.23;50.06
78741;BME280;68062;48.726;9.370;2023-08-17T10:48:24;98735.94;;;33.35;47.57
78741;BME280;68062;48.726;9.370;2023-08-17T10:51:03;98740.84;;;33.58;47.34
78741;BME280;68062;48.726;9.370;2023-08-17T10:53:36;98732.44;;;32.11;47.95
78741;BME280;68062;48.726;9.370;2023-08-17T10:56:10;98740.13;;;32.24;48.27
78741;BME280;68062;48.726;9.370;2023-08-17T10:58:38;98730.13;;;33.22;46.27
78741;BME280;68062;48.726;9.370;2023-08-17T11:01:05;98727.53;;;32.36;48.24
78741;BME280;68062;48.726;9.370;2023-08-17T11:03:32;98717.28;;;32.89;47.41
78741;BME280;68062;48.726;9.370;2023-08-17T11:06:14;98709.50;;;33.24;46.09
78741;BME280;68062;48.726;9.370;2023-08-17T11:08:51;98695.28;;;33.33;46.12
78741;BME280;68062;48.726;9.370;2023-08-17T11:11:20;98711.19;;;33.25;47.94
78741;BME280;68062;48.726;9.370;2023-08-17T11:13:47;98703.97;;;32.41;49.17
78741;BME280;68062;48.726;9.370;2023-08-17T11:16:17;98671.56;;;33.58;46.41
78741;BME280;68062;48.726;9.370;2023-08-17T11:18:45;98694.63;;;33.85;44.36
78741;BME280;68062;48.726;9.370;2023-08-17T11:21:12;98693.31;;;33.35;45.49
78741;BME280;68062;48.726;9.370;2023-08-17T11:23:40;98686.81;;;33.20;45.49
78741;BME280;68062;48.726;9.370;2023-08-17T11:26:07;98697.34;;;32.93;46.71
78741;BME280;68062;48.726;9.370;2023-08-17T11:28:34;98690.81;;;32.87;47.51
78741;BME280;68062;48.726;9.370;2023-08-17T11:31:05;98690.53;;;32.43;48.13
78741;BME280;68062;48.726;9.370;2023-08-17T11:33:36;98686.63;;;32.75;46.64
78741;BME280;68062;48.726;9.370;2023-08-17T11:36:04;98668.78;;;31.90;46.40
78741;BME280;68062;48.726;9.370;2023-08-17T11:38:32;98676.53;;;32.79;45.71
78741;BME280;68062;48.726;9.370;2023-08-17T11:40:59;98671.59;;;33.30;43.74
78741;BME280;68062;48.726;9.370;2023-08-17T11:43:26;98669.56;;;33.60;43.73
78741;BME280;68062;48.726;9.370;2023-08-17T11:45:54;98672.22;;;33.96;42.88
78741;BME280;68062;48.726;9.370;2023-08-17T11:48:21;98671.44;;;33.86;41.38
78741;BME280;68062;48.726;9.370;2023-08-17T11:50:51;98673.50;;;33.20;42.57
78741;BME280;68062;48.726;9.370;2023-08-17T11:53:17;98677.47;;;33.34;42.99
78741;BME280;68062;48.726;9.370;2023-08-17T11:55:44;98670.72;;;33.39;43.89
78741;BME280;68062;48.726;9.370;2023-08-17T11:58:11;98672.97;;;33.16;42.87
78741;BME280;68062;48.726;9.370;2023-08-17T12:00:41;98682.59;;;32.33;45.49
78741;BME280;68062;48.726;9.370;2023-08-17T12:03:13;98678.16;;;31.94;45.82
78741;BME280;68062;48.726;9.370;2023-08-17T12:05:39;98687.81;;;31.85;46.04
78741;BME280;68062;48.726;9.370;2023-08-17T12:08:08;98695.19;;;31.23;48.42
78741;BME280;68062;48.726;9.370;2023-08-17T12:10:37;98698.44;;;30.33;49.37
78741;BME280;68062;48.726;9.370;2023-08-17T12:13:05;98698.91;;;29.08;52.62
78741;BME280;68062;48.726;9.370;2023-08-17T12:15:32;98700.69;;;29.19;53.10
78741;BME280;68062;48.726;9.370;2023-08-17T12:18:01;98709.06;;;29.35;52.48
78741;BME280;68062;48.726;9.370;2023-08-17T12:20:29;98707.63;;;29.43;54.26
78741;BME280;68062;48.726;9.370;2023-08-17T12:22:57;98689.28;;;29.62;53.79
78741;BME280;68062;48.726;9.370;2023-08-17T12:25:25;98695.81;;;29.79;54.10
78741;BME280;68062;48.726;9.370;2023-08-17T12:27:53;98692.44;;;29.56;54.97
78741;BME280;68062;48.726;9.370;2023-08-17T12:30:26;98685.25;;;29.68;54.33
78741;BME280;68062;48.726;9.370;2023-08-17T12:32:53;98684.03;;;29.72;54.36
78741;BME280;68062;48.726;9.370;2023-08-17T12:35:20;98687.81;;;29.70;54.61
78741;BME280;68062;48.726;9.370;2023-08-17T12:37:50;98697.38;;;29.49;56.01
78741;BME280;68062;48.726;9.370;2023-08-17T12:40:16;98691.09;;;28.95;57.18
78741;BME280;68062;48.726;9.370;2023-08-17T12:42:44;98689.63;;;28.68;59.57
78741;BME280;68062;48.726;9.370;2023-08-17T12:45:11;98676.78;;;28.63;61.72
78741;BME280;68062;48.726;9.370;2023-08-17T12:47:38;98671.97;;;27.99;64.39
78741;BME280;68062;48.726;9.370;2023-08-17T12:50:05;98686.28;;;27.96;65.92
78741;BME280;68062;48.726;9.370;2023-08-17T12:52:32;98703.34;;;27.68;66.97
78741;BME280;68062;48.726;9.370;2023-08-17T12:54:59;98729.44;;;27.35;68.78
78741;BME280;68062;48.726;9.370;2023-08-17T12:57:26;98741.00;;;27.45;68.46
78741;BME280;68062;48.726;9.370;2023-08-17T12:59:54;98748.56;;;27.26;70.00